Tiempo atmosférico en la estación meteorológica de Sta.Cruz de Tenerife, Santa Cruz de Tenerife (35 m.)



Fecha
DESCASC
Temp. máxima en grados centígrados (hora)
DESCASC
Temp. mínima en grados centígrados (hora)
DESCASC
Temp. media en grados centígrados
DESCASC
Racha de viento máxima en m/sg (hora)
DESCASC
Velocidad máxima media en intervalos de 10 minutos(hora)
DESCASC
Precipitaciones diarias en mm
DESCASC
Precipitaciones de 00:00 a 06:00 en mm
DESCASC
Precipitaciones de 06:00 a 12:00 en mm
DESCASC
Precipitaciones de 12:00 a 18:00 en mm
DESCASC
Precipitaciones de 18:00 a 24:00 en mm
DESCASC
22-04-2019 25.1 (14:50) 17.9 (06:30) 21.5 14.17 (22:10) 6.67 (14:30) 0 0 0 0 0
21-04-2019 23.7 (15:30) 18.1 (06:50) 20.9 13.06 (16:00) 6.39 (14:10) 0 0 0 0 0
20-04-2019 23 (14:50) 17.2 (07:00) 20.1 11.94 (02:10) 6.11 (00:40) 0 0 0 0 0
19-04-2019 22 (16:40) 17.1 (07:10) 19.6 13.33 (14:50) 8.06 (14:50) 0 0 0 0 0
18-04-2019 22.6 (15:30) 17.8 (00:00) 20.2 11.67 (17:00) 5.83 (17:10) 0 0 0 0 0
17-04-2019 22.2 (10:30) 17.4 (00:00) 19.8 10.83 (19:30) 6.39 (19:30) 0.4 0 0 0.4 0
16-04-2019 22.3 (15:00) 17.5 (00:00) 19.9 9.17 (22:50) 4.44 (23:30) 0 0 0 0 0
15-04-2019 23.4 (11:50) 17.8 (00:00) 20.6 10.56 (06:40) 6.11 (13:20) 0 0 0 0 0
14-04-2019 23.2 (14:00) 15.5 (00:00) 19.4 11.11 (21:30) 6.11 (16:30) 0 0 0 0 0
13-04-2019 23.2 (18:40) 17.7 (00:00) 20.5 10.83 (16:10) 6.67 (16:00) 0 0 0 0 0
12-04-2019 22.5 (15:30) 17.4 (00:00) 19.9 11.39 (05:30) 6.11 (15:50) 0 0 0 0 0
11-04-2019 22 (15:30) 16.8 (00:00) 19.4 13.06 (11:10) 7.22 (21:20) 0 0 0 0 0
10-04-2019 22 (15:10) 16.9 (00:00) 19.4 12.5 (14:40) 5.83 (13:10) 0 0 0 0 0
09-04-2019 22.5 (14:50) 15.8 (00:00) 19.2 10.28 (16:00) 5.83 (11:20) 0 0 0 0 0
08-04-2019 23.4 (15:20) 16.7 (00:00) 20.1 9.17 (18:20) 5.83 (19:10) 0 0 0 0 0
07-04-2019 22.5 (17:10) 15 (00:00) 18.8 6.11 (09:20) 3.89 (23:00) 0 0 0 0 0
06-04-2019 21.9 (15:30) 16.2 (00:00) 19.1 11.39 (19:00) 5.83 (03:30) 0.2 0.2 0 0 0
05-04-2019 22.8 (15:30) 16.2 (00:00) 19.5 12.5 (17:40) 6.67 (22:40) 0 0 0 0 0
04-04-2019 21.8 (16:00) 15.7 (00:00) 18.7 11.11 (13:30) 6.11 (14:30) 0 0 0 0 0
03-04-2019 22.6 (14:50) 16.5 (07:00) 19.6 16.67 (18:00) 8.61 (17:10) 2.6 0 0 0 2.6
02-04-2019 20.6 (14:50) 15.3 (00:00) 18 8.89 (19:30) 5 (21:50) 0.8 0.4 0.4 0 0
01-04-2019 21.4 (12:30) 15.6 (00:00) 18.5 7.78 (01:20) 5 (00:20) 24.6 0 0 3.8 20.8
31-03-2019 21.5 (11:30) 15.7 (00:00) 18.6 8.89 (23:00) 5.28 (23:59) 0 0 0 0 0
30-03-2019 23.2 (14:10) 15.5 (00:00) 19.4 8.89 (13:10) 5.28 (11:20) 0.2 0 0.2 0 0
29-03-2019 21.8 (12:40) 16.4 (00:00) 19.1 8.33 (16:20) 5.83 (16:20) 1 0 0.8 0.2 0
28-03-2019 21.7 (14:00) 15.3 (00:00) 18.5 5.28 (12:10) 3.89 (07:00) 0 0 0 0 0
27-03-2019 23.2 (14:20) 17.4 (00:00) 20.3 7.78 (18:00) 5 (11:20) 0.4 0.2 0 0.2 0
26-03-2019 22.2 (11:40) 15 (00:00) 18.6 10 (23:50) 5.83 (23:50) 0 0 0 0 0
25-03-2019 20.7 (15:40) 16.1 (00:00) 18.4 6.11 (10:50) 3.33 (11:10) 1.6 0.2 1.2 0.2 0

Gráficas

Temp. máximas Temp. mínimas Temp. medias Precipitaciones Rachas de viento máximas Velocidades máximas media en intervalos de 10 minutos

Datos horarios

Fecha y hora oficial Temperatura (ºC) Velocidad del viento (km/h) Dirección del viento Racha (km/h) Dirección de racha Precipitación (mm) Presión (hPa) Tendencia (hPa) Humedad (%)
2019-04-23 23:00:00 18 10 Norte 36 Norte 0 1011.6 2 67
2019-04-23 22:00:00 18.3 14 Noroeste 40 Oeste 0 1010.9 1.5 62
2019-04-23 21:00:00 18.4 3 Norte 27 Noroeste 0 1010.4 1.2 60
2019-04-23 20:00:00 18.8 10 Noroeste 36 Norte 0 1009.6 0.3 58
2019-04-23 19:00:00 19.7 17 Norte 35 Norte 0 1009.4 -0.4 55
2019-04-23 18:00:00 20.5 19 Noroeste 41 Oeste 0 1009.2 -0.7 55
2019-04-23 17:00:00 20.7 18 Noroeste 41 Noroeste 0 1009.3 -0.4 55
2019-04-23 16:00:00 21.1 22 Noroeste 41 Noroeste 0 1009.8 0.2 58
2019-04-23 15:00:00 21.8 19 Noroeste 40 Oeste 0 1009.9 0.5 67
2019-04-23 14:00:00 22.6 20 Noroeste 43 Noroeste 0 1009.7 0.9 59
2019-04-23 13:00:00 21.9 25 Noroeste 45 Noroeste 0 1009.6 0.8 59
2019-04-23 12:00:00 22.5 20 Noroeste 44 Norte 0 1009.4 0.9 53
2019-04-23 11:00:00 22.8 18 Noroeste 35 Norte 0 1008.8 0.9 49
2019-04-23 10:00:00 20.9 15 Oeste 32 Oeste 0 1008.8 1.2 59
2019-04-23 09:00:00 19.7 12 Noroeste 36 Noroeste 0 1008.5 1.3 63
2019-04-23 08:00:00 18.4 13 Noroeste 32 Norte 0 1007.9 1 64
2019-04-23 07:00:00 18.5 12 Noroeste 45 Oeste 0 1007.6 0.4 64
2019-04-23 06:00:00 18.4 15 Noroeste 45 Noroeste 0 1007.2 -0.8 65
2019-04-23 05:00:00 18.5 15 Noroeste 42 Oeste 0 1006.9 -1.7 64
2019-04-23 04:00:00 18.5 17 Noroeste 50 Oeste 0 1007.2 -1.8 66
2019-04-23 03:00:00 18.6 14 Noroeste 50 Noroeste 0 1008 -1 65
2019-04-23 02:00:00 18.7 17 Noroeste 43 Noroeste 0 1008.6 -0.2 66
2019-04-23 01:00:00 18.8 15 Noroeste 49 Noroeste 0 1009 1 65
2019-04-23 00:00:00 18.7 18 Noroeste 45 Noroeste 0 1009 1.3 65
2019-04-22 23:00:00 18.8 20 Noroeste 51 Norte 0 1008.8 0.4 67
2019-04-22 22:00:00 18.8 23 Norte 40 Noroeste 0 1008 -0.7 68
2019-04-22 21:00:00 19 11 Noroeste 39 Norte 0 1007.7 -1.5 66
2019-04-22 20:00:00 19.9 13 Noroeste 32 Noroeste 0 1008.4 -0.3 64
2019-04-22 19:00:00 21.5 15 Noroeste 42 Noroeste 0 1008.7 0.2 58
2019-04-22 18:00:00 22.2 22 Noroeste 42 Oeste 0 1009.2 0.3 58
2019-04-22 17:00:00 24 23 Oeste 39 Oeste 0 1008.7 -0.5 51
2019-04-22 16:00:00 23.8 16 Sudoeste 28 Noroeste 0 1008.5 -1.2 59
2019-04-22 15:00:00 24.6 23 Oeste 43 Oeste 0 1008.9 -1 48
2019-04-22 14:00:00 24 8 Noroeste 34 Oeste 0 1009.2 -0.6 54
2019-04-22 13:00:00 22.9 8 Sudeste 19 Sudeste 0 1009.7 -0.2 60
2019-04-22 12:00:00 22.5 12 Sur 20 Sur 0 1009.9 0.4 59
2019-04-22 11:00:00 22.4 7 Este 28 Oeste 0 1009.8 0.7 53
2019-04-22 10:00:00 20.4 16 Oeste 36 Oeste 0 1009.9 1.4 60
2019-04-22 09:00:00 19.2 18 Oeste 32 Oeste 0 1009.5 0.8 64
2019-04-22 08:00:00 17.9 16 Oeste 30 Oeste 0 1009.1 0.4 69
2019-04-22 07:00:00 18 10 Oeste 32 Oeste 0 1008.5 -0.4 67
2019-04-22 06:00:00 18 15 Oeste 35 Oeste 0 1008.7 -1.1 69
2019-04-22 05:00:00 18.1 16 Noroeste 38 Oeste 0 1008.7 -1.5 69
2019-04-22 04:00:00 18.3 22 Oeste 33 Oeste 0 1008.9 -1.6 70
2019-04-22 03:00:00 18.5 15 Oeste 34 Oeste 0 1009.8 -1.1 70
2019-04-22 02:00:00 18.6 19 Oeste 33 Oeste 0 1010.2 -0.9 70
2019-04-22 01:00:00 18.6 15 Oeste 35 Oeste 0 1010.5 -0.3 68
2019-04-22 00:00:00 18.8 15 Oeste 29 Oeste 0 1010.9 0.9 67
2019-04-21 23:00:00 19 11 Noroeste 33 Oeste 0 1011.1 1.4 66
2019-04-21 22:00:00 19.2 18 Noroeste 35 Noroeste 0 1010.8 1.1 65
2019-04-21 21:00:00 19.6 19 Noroeste 41 Noroeste 0 1010 0.2 64
2019-04-21 20:00:00 20.6 9 Noroeste 27 Noroeste 0 1009.7 -0.1 61
2019-04-21 19:00:00 22.6 15 Noroeste 32 Oeste 0 1009.7 -0.3 53
2019-04-21 18:00:00 23.4 14 Noroeste 32 Norte 0 1009.8 -0.6 51
2019-04-21 17:00:00 23.3 15 Noroeste 39 Noroeste 0 1009.8 -1 52
2019-04-21 16:00:00 23.3 22 Noroeste 47 Norte 0 1010 -1.3 50
2019-04-21 15:00:00 23.1 21 Noroeste 42 Noroeste 0 1010.4 -1.3 48
2019-04-21 14:00:00 23.1 19 Noroeste 45 Noroeste 0 1010.8 -0.9 45
2019-04-21 13:00:00 22.6 13 Noroeste 36 Oeste 0 1011.3 0 49
2019-04-21 12:00:00 22 8 Norte 29 Noroeste 0 1011.7 0.9 50
2019-04-21 11:00:00 20.7 9 Norte 20 Noroeste 0 1011.7 1.4 54
2019-04-21 10:00:00 19.7 8 Norte 19 Noroeste 0 1011.3 1.5 59
2019-04-21 09:00:00 18.7 7 Noroeste 21 Noroeste 0 1010.8 1.2 61
2019-04-21 08:00:00 18.4 9 Noroeste 20 Norte 0 1010.3 0.6 61
2019-04-21 07:00:00 18.1 6 Noroeste 20 Noroeste 0 1009.8 -0.3 63
2019-04-21 06:00:00 18.2 12 Norte 28 Noroeste 0 1009.6 -1.2 61
2019-04-21 05:00:00 18.4 10 Norte 20 Norte 0 1009.7 -1.8 61
2019-04-21 04:00:00 18.4 10 Norte 19 Norte 0 1010.1 -1.9 64
2019-04-21 03:00:00 18.7 10 Norte 24 Noroeste 0 1010.8 -1.4 60
2019-04-21 02:00:00 18.8 8 Noroeste 21 Noroeste 0 1011.5 -0.7 60
2019-04-21 01:00:00 18.8 9 Norte 26 Norte 0 1012 0.2 60
2019-04-21 00:00:00 18.8 9 Norte 28 Noroeste 0 1012.2 0.9 64
2019-04-20 23:00:00 18.9 13 Noroeste 24 Noroeste 0 1012.2 1.4 59
2019-04-20 22:00:00 18.9 8 Norte 25 Norte 0 1011.8 1.1 60
2019-04-20 21:00:00 18.6 8 Norte 21 Nordeste 0 1011.3 1 65
2019-04-20 20:00:00 19.2 13 Norte 24 Norte 0 1010.8 0.2 59
2019-04-20 19:00:00 19.5 10 Norte 29 Noroeste 0 1010.7 -0.2 58
2019-04-20 18:00:00 20.7 13 Norte 33 Noroeste 0 1010.3 -1.2 53
2019-04-20 17:00:00 21.8 12 Norte 32 Norte 0 1010.6 -1.6 48
2019-04-20 16:00:00 22.4 15 Norte 27 Norte 0 1010.9 -1.4 44
2019-04-20 15:00:00 22.7 15 Norte 34 Norte 0 1011.5 -1 42
2019-04-20 14:00:00 22.2 21 Norte 35 Norte 0 1012.2 -0.4 44
2019-04-20 13:00:00 20.3 15 Norte 31 Norte 0 1012.3 -0.1 51
2019-04-20 12:00:00 19.9 15 Norte 30 Norte 0 1012.5 0.6 52
2019-04-20 11:00:00 19.5 5 Norte 31 Norte 0 1012.6 1.3 54
2019-04-20 10:00:00 18.8 12 Norte 32 Noroeste 0 1012.4 1.2 56
2019-04-20 09:00:00 19 13 Noroeste 35 Norte 0 1011.9 0.8 56
2019-04-20 08:00:00 17.4 12 Noroeste 31 Noroeste 0 1011.3 -0.5 57
2019-04-20 07:00:00 17.2 13 Noroeste 27 Noroeste 0 1011.2 -0.8 59
2019-04-20 06:00:00 17.4 12 Noroeste 30 Noroeste 0 1011.1 -1.5 60
2019-04-20 05:00:00 17.4 15 Norte 40 Noroeste 0 1011.8 -1.4 58
2019-04-20 04:00:00 17.3 15 Noroeste 39 Noroeste 0 1012 -1.8 59
2019-04-20 03:00:00 17.6 14 Norte 43 Noroeste 0 1012.6 -1.5 60
2019-04-20 02:00:00 17.5 16 Noroeste 34 Noroeste 0 1013.2 -1.2 58
2019-04-20 01:00:00 17.5 15 Noroeste 38 Noroeste 0 1013.8 -0.3 59
2019-04-20 00:00:00 17.5 18 Noroeste 37 Noroeste 0 1014.1 0.7 57
2019-04-19 23:00:00 17.6 17 Noroeste 40 Noroeste 0 1014.4 1 57
2019-04-19 22:00:00 17.9 17 Noroeste 35 Noroeste 0 1014.1 0.9 55
2019-04-19 21:00:00 18.1 18 Noroeste 42 Noroeste 0 1013.4 -0.1 60
2019-04-19 20:00:00 18.6 23 Noroeste 42 Noroeste 0 1013.4 0 55
2019-04-19 19:00:00 20.2 13 Nordeste 46 Nordeste 0 1013.2 -0.6 49
2019-04-19 18:00:00 20.5 18 Nordeste 43 Norte 0 1013.5 -0.7 47
2019-04-19 17:00:00 21.4 14 Norte 41 Noroeste 0 1013.4 -1.4 46
2019-04-19 16:00:00 21.6 20 Norte 48 Norte 0 1013.8 -1.5 45
2019-04-19 15:00:00 21.2 23 Norte 48 Noroeste 0 1014.2 -1 44
2019-04-19 14:00:00 21.1 21 Noroeste 45 Norte 0 1014.8 -0.3 45
2019-04-19 13:00:00 20.7 21 Noroeste 46 Noroeste 0 1015.3 0.4 45
2019-04-19 12:00:00 20.4 19 Norte 37 Norte 0 1015.2 0.8 46
2019-04-19 11:00:00 20.1 17 Norte 36 Noroeste 0 1015.1 1.1 50
2019-04-19 10:00:00 18.4 10 Norte 31 Noroeste 0 1014.9 0.9 55
2019-04-19 09:00:00 18 13 Noroeste 41 Norte 0 1014.4 0.9 56
2019-04-19 08:00:00 17.2 16 Norte 37 Noroeste 0 1014 0.3 60
2019-04-19 07:00:00 17.2 10 Noroeste 35 Noroeste 0 1014 -0.3 58
2019-04-19 06:00:00 17.6 17 Noroeste 46 Noroeste 0 1013.5 -1.2 59
2019-04-19 05:00:00 17.4 16 Norte 34 Norte 0 1013.7 -1.6 58
2019-04-19 04:00:00 17.5 12 Noroeste 36 Norte 0 1014.3 -1.5 58
2019-04-19 03:00:00 17.8 11 Norte 32 Norte 0 1014.7 -1.3 60
2019-04-19 02:00:00 18.1 14 Norte 26 Noroeste 0 1015.3 -0.4 62
2019-04-19 01:00:00 18.2 10 Norte 33 Noroeste 0 1015.8 0.5 62
2019-04-19 00:00:00 18.3 10 Norte 27 Norte 0 1016 1.2 59
2019-04-18 23:00:00 18.5 10 Norte 27 Norte 0 1015.7 1.5 59
2019-04-18 22:00:00 18.6 10 Norte 25 Norte 0 1015.3 1.4 59
2019-04-18 21:00:00 18.7 14 Norte 34 Norte 0 1014.8 1.2 58
2019-04-18 20:00:00 19.2 13 Norte 36 Norte 0 1014.2 0.5 53
2019-04-18 19:00:00 20.1 20 Norte 32 Norte 0 1013.9 0 54
2019-04-18 18:00:00 21.6 13 Norte 38 Norte 0 1013.6 -0.5 50
2019-04-18 17:00:00 22.2 17 Nordeste 42 Nordeste 0 1013.7 -0.8 47
2019-04-18 16:00:00 21.6 14 Nordeste 33 Norte 0 1013.9 -0.7 48
2019-04-18 15:00:00 21.9 15 Norte 34 Norte 0 1014.1 -0.7 48
2019-04-18 14:00:00 21.9 14 Norte 36 Norte 0 1014.5 -0.1 47
2019-04-18 13:00:00 21.4 21 Noroeste 32 Noroeste 0 1014.6 0.5 47
2019-04-18 12:00:00 21.2 13 Norte 33 Norte 0 1014.8 1 48
2019-04-18 11:00:00 20.9 17 Noroeste 35 Oeste 0 1014.6 1.4 49
2019-04-18 10:00:00 20.4 14 Norte 30 Nordeste 0 1014.1 1.5 51
2019-04-18 09:00:00 18.5 11 Norte 26 Norte 0 1013.8 1.5 58
2019-04-18 08:00:00 17.9 9 Norte 26 Norte 0 1013.2 1 61
2019-04-18 07:00:00 18 12 Norte 24 Norte 0 1012.6 0.3 63
2019-04-18 06:00:00 17.8 9 Norte 23 Noroeste 0 1012.3 -0.5 64
2019-04-18 05:00:00 17.9 11 Noroeste 21 Norte 0 1012.2 -1.1 61
2019-04-18 04:00:00 18.1 8 Noroeste 25 Norte 0 1012.3 -1.3 62
2019-04-18 03:00:00 18.1 12 Noroeste 26 Oeste 0 1012.8 -0.9 60
2019-04-18 02:00:00 18.1 15 Noroeste 28 Noroeste 0 1013.3 0.1 62
2019-04-18 01:00:00 18.5 11 Noroeste 24 Norte 0 1013.6 1.2 67
2019-04-18 00:00:00 18.8 14 Noroeste 25 Noroeste 0 1013.7 2.5 58
2019-04-17 23:00:00 18.6 14 Noroeste 25 Norte 0 1013.2 2.8 63
2019-04-17 22:00:00 18.7 12 Noroeste 28 Noroeste 0 1012.4 2.3 60
2019-04-17 21:00:00 18.9 16 Noroeste 36 Norte 0 1011.2 1.2 62
2019-04-17 20:00:00 19.4 15 Noroeste 39 Noroeste 0 1010.4 0.7 61
2019-04-17 19:00:00 20.8 14 Noroeste 32 Noroeste 0 1010.1 -0.2 57
2019-04-17 18:00:00 20.6 18 Noroeste 35 Oeste 0 1010 -0.2 62
2019-04-17 17:00:00 21.6 16 Noroeste 28 Noroeste 0 1009.7 -1.1 57
2019-04-17 16:00:00 20.4 15 Noroeste 27 Noroeste 0 1010.3 -0.7 64
2019-04-17 15:00:00 20.3 6 Noroeste 15 Norte 0 1010.2 -0.6 71
2019-04-17 14:00:00 18.4 4 Sudeste 15 Sur 0.2 1010.8 0.6 82
2019-04-17 13:00:00 18.7 7 Sudoeste 13 Sudoeste 0.2 1011 1.5 83
2019-04-17 12:00:00 19.1 9 Sur 17 Sudoeste 0 1010.8 1.5 77
2019-04-17 11:00:00 21 9 Sur 18 Sur 0 1010.2 1.4 60
2019-04-17 10:00:00 20.6 10 Sur 14 Sur 0 1009.5 1.2 62
2019-04-17 09:00:00 18.7 8 Oeste 15 Oeste 0 1009.3 1.3 59
2019-04-17 08:00:00 17.5 8 Oeste 16 Oeste 0 1008.8 0.7 65
2019-04-17 07:00:00 17.6 10 Oeste 19 Noroeste 0 1008.3 -0.1 64
2019-04-17 06:00:00 17.7 9 Oeste 25 Oeste 0 1008 -0.7 59
2019-04-17 05:00:00 18 10 Oeste 28 Noroeste 0 1008.1 -0.9 65
2019-04-17 04:00:00 18 12 Oeste 28 Noroeste 0 1008.4 -1.2 69
2019-04-17 03:00:00 18.2 14 Noroeste 32 Noroeste 0 1008.7 -1 70
2019-04-17 02:00:00 18.4 13 Oeste 31 Noroeste 0 1009 -0.7 69
2019-04-17 01:00:00 18.7 13 Noroeste 33 Noroeste 0 1009.6 0.1 70
2019-04-17 00:00:00 18.9 14 Noroeste 30 Oeste 0 1009.7 1 69
2019-04-16 23:00:00 18.7 11 Noroeste 33 Noroeste 0 1009.7 1.3 70
2019-04-16 22:00:00 19.4 11 Noroeste 28 Norte 0 1009.5 1.2 69
2019-04-16 21:00:00 20.1 12 Noroeste 28 Norte 0 1008.7 0.2 69
2019-04-16 20:00:00 20.2 11 Oeste 22 Oeste 0 1008.4 -0.5 71
2019-04-16 19:00:00 20.1 5 Sur 13 Sur 0 1008.3 -1.5 73
2019-04-16 18:00:00 20.9 5 Sur 15 Sur 0 1008.5 -2.2 69
2019-04-16 17:00:00 20.7 7 Sudeste 20 Sur 0 1008.9 -2.6 68
2019-04-16 16:00:00 21.1 10 Sudeste 18 Sudeste 0 1009.8 -2.1 66
2019-04-16 15:00:00 22 9 Sudeste 17 Sudeste 0 1010.7 -1.7 64
2019-04-16 14:00:00 21.8 9 Sudeste 17 Sudeste 0 1011.5 -0.7 65
2019-04-16 13:00:00 21 9 Este 17 Sudeste 0 1011.9 -0.3 66
2019-04-16 12:00:00 20.4 11 Sudeste 19 Este 0 1012.4 0.4 71
2019-04-16 11:00:00 21.1 14 Este 21 Este 0 1012.2 0.8 70
2019-04-16 10:00:00 21 13 Este 19 Este 0 1012.2 1.3 70
2019-04-16 09:00:00 20 9 Este 15 Este 0 1012 1.2 75
2019-04-16 08:00:00 18.4 8 Este 17 Este 0 1011.4 0.2 84
2019-04-16 07:00:00 18.4 9 Este 16 Este 0 1010.9 -0.9 83
2019-04-16 06:00:00 18.5 10 Este 16 Nordeste 0 1010.8 -1.6 84
2019-04-16 05:00:00 18.3 5 Nordeste 19 Nordeste 0 1011.2 -1.9 85
2019-04-16 04:00:00 17.6 8 Oeste 11 Oeste 0 1011.8 -2 76
2019-04-16 03:00:00 17.9 6 Oeste 12 Oeste 0 1012.4 -1.7 76
2019-04-16 02:00:00 18.6 4 Nordeste 10 Este 0 1013.1 -0.9 80
2019-04-16 01:00:00 18.7 5 Oeste 11 Noroeste 0 1013.8 -0.1 73
2019-04-16 00:00:00 19.3 6 Este 15 Este 0 1014.1 0.9 76
2019-04-15 23:00:00 19.6 5 Este 15 Este 0 1014 1.1 71
2019-04-15 22:00:00 19.7 7 Este 19 Este 0 1013.9 1.1 74
2019-04-15 21:00:00 20.1 9 Este 22 Este 0 1013.2 0.3 70
2019-04-15 20:00:00 20.5 9 Este 26 Este 0 1012.9 0 69
2019-04-15 19:00:00 21 12 Este 28 Este 0 1012.8 -0.7 71
2019-04-15 18:00:00 22.2 16 Este 29 Este 0 1012.9 -0.9 69
2019-04-15 17:00:00 23 14 Este 28 Este 0 1012.9 -1.2 65
2019-04-15 16:00:00 22.3 13 Este 27 Este 0 1013.5 -1 67
2019-04-15 15:00:00 22.3 19 Este 31 Este 0 1013.8 -0.8 65
2019-04-15 14:00:00 22.7 17 Este 35 Este 0 1014.1 -0.4 60
2019-04-15 13:00:00 22.5 18 Este 28 Este 0 1014.5 0.3 61
2019-04-15 12:00:00 23 10 Este 26 Este 0 1014.6 0.7 53
2019-04-15 11:00:00 22.7 14 Nordeste 29 Nordeste 0 1014.5 1.1 53
2019-04-15 10:00:00 21.4 5 Sudeste 10 Este 0 1014.2 1.2 57
2019-04-15 09:00:00 20.2 3 Oeste 7 Sur 0 1013.9 1.5 61
2019-04-15 08:00:00 18.3 3 Nordeste 27 Noroeste 0 1013.4 1.3 65
2019-04-15 07:00:00 18.4 17 Noroeste 38 Noroeste 0 1013 0.8 65
2019-04-15 06:00:00 18.1 10 Noroeste 21 Noroeste 0 1012.4 -0.1 69
2019-04-15 05:00:00 18 5 Noroeste 18 Norte 0 1012.1 -0.7 67
2019-04-15 04:00:00 18.3 14 Noroeste 24 Norte 0 1012.2 -1.1 65
2019-04-15 03:00:00 18.3 15 Noroeste 32 Noroeste 0 1012.5 -0.6 68
2019-04-15 02:00:00 18.5 12 Noroeste 28 Noroeste 0 1012.8 0.3 68
2019-04-15 01:00:00 18.4 15 Noroeste 28 Oeste 0 1013.3 1.8 69
2019-04-15 00:00:00 18.5 6 Oeste 27 Oeste 0 1013.1 2 67
2019-04-14 23:00:00 18.9 4 Sur 17 Sudoeste 0 1012.5 2 66
2019-04-14 22:00:00 19 10 Oeste 40 Noroeste 0 1011.5 1.2 66
2019-04-14 21:00:00 19.5 17 Noroeste 38 Noroeste 0 1011.1 0.9 65
2019-04-14 20:00:00 20.3 13 Sudoeste 24 Sudoeste 0 1010.5 0.6 71
2019-04-14 19:00:00 21.9 12 Sudoeste 31 Sudoeste 0 1010.3 -0.1 64
2019-04-14 18:00:00 22.5 18 Sur 30 Sur 0 1010.2 -0.4 61
2019-04-14 17:00:00 22.7 19 Sur 35 Sur 0 1009.9 -1.3 61
2019-04-14 16:00:00 22.8 21 Sur 33 Sur 0 1010.4 -1.1 60
2019-04-14 15:00:00 23.1 18 Sur 28 Sur 0 1010.6 -1.6 60
2019-04-14 14:00:00 22.8 13 Sur 21 Sur 0 1011.2 -0.9 55
2019-04-14 13:00:00 22.2 8 Sudeste 18 Sur 0 1011.5 -0.2 55
2019-04-14 12:00:00 21.3 9 Este 17 Este 0 1012.2 0.4 65
2019-04-14 11:00:00 21.2 11 Este 17 Sudeste 0 1012.1 0.7 65
2019-04-14 10:00:00 20.3 6 Este 14 Nordeste 0 1011.7 0.6 62
2019-04-14 09:00:00 18 5 Oeste 17 Oeste 0 1011.8 0.7 64
2019-04-14 08:00:00 15.6 10 Oeste 17 Oeste 0 1011.4 -0.2 69
2019-04-14 07:00:00 15.8 5 Oeste 15 Oeste 0 1011.1 -1 67
2019-04-14 06:00:00 16.1 9 Oeste 14 Oeste 0 1011.1 -1.4 67
2019-04-14 05:00:00 16.5 5 Oeste 10 Oeste 0 1011.6 -1.6 69
2019-04-14 04:00:00 16.8 5 Oeste 10 Noroeste 0 1012.1 -1.6 67
2019-04-14 03:00:00 16.9 4 Sudoeste 11 Oeste 0 1012.5 -1.4 66
2019-04-14 02:00:00 17.4 8 Oeste 13 Oeste 0 1013.2 -1.1 64
2019-04-14 01:00:00 17.8 4 Noroeste 24 Oeste 0 1013.7 -0.3 62
2019-04-14 00:00:00 18 2 Este 13 Noroeste 0 1013.9 0.8 61
2019-04-13 23:00:00 18.7 5 Noroeste 21 Nordeste 0 1014.3 1.4 63
2019-04-13 22:00:00 18.9 10 Este 20 Este 0 1014 1.5 66
2019-04-13 21:00:00 19.7 6 Sudoeste 22 Oeste 0 1013.1 0.4 62
2019-04-13 20:00:00 20.6 6 Sudeste 26 Este 0 1012.9 0 53
2019-04-13 19:00:00 22.2 15 Este 30 Este 0 1012.5 -1 49
2019-04-13 18:00:00 22.1 17 Este 33 Este 0 1012.7 -1.6 55
2019-04-13 17:00:00 21.8 21 Este 39 Este 0 1012.9 -1.8 59
2019-04-13 16:00:00 21.5 24 Este 38 Este 0 1013.5 -1.8 59
2019-04-13 15:00:00 21.6 21 Este 38 Este 0 1014.3 -1.2 59
2019-04-13 14:00:00 22.1 18 Este 34 Este 0 1014.7 -0.7 54
2019-04-13 13:00:00 22.3 11 Nordeste 30 Este 0 1015.3 0.1 50
2019-04-13 12:00:00 22.4 11 Nordeste 24 Nordeste 0 1015.5 0.4 49
2019-04-13 11:00:00 21.7 8 Nordeste 26 Nordeste 0 1015.4 0.6 52
2019-04-13 10:00:00 20.1 9 Nordeste 22 Nordeste 0 1015.2 0.7 56
2019-04-13 09:00:00 19.3 7 Nordeste 16 Nordeste 0 1015.1 0.9 59
2019-04-13 08:00:00 17.8 6 Nordeste 15 Nordeste 0 1014.8 0.2 67
2019-04-13 07:00:00 17.9 6 Nordeste 19 Nordeste 0 1014.5 -0.2 62
2019-04-13 06:00:00 18.1 6 Norte 19 Nordeste 0 1014.2 -1 64
2019-04-13 05:00:00 18.1 7 Norte 24 Norte 0 1014.6 -1.4 63
2019-04-13 04:00:00 18.1 5 Nordeste 19 Norte 0 1014.7 -1.6 65
2019-04-13 03:00:00 18.2 11 Norte 24 Norte 0 1015.2 -1.1 62
2019-04-13 02:00:00 18.2 14 Norte 28 Nordeste 0 1016 -0.2 64
2019-04-13 01:00:00 17.9 13 Norte 28 Norte 0 1016.3 0.7 63
2019-04-13 00:00:00 17.7 9 Norte 24 Norte 0 1016.3 1.4 63
2019-04-12 23:00:00 17.6 12 Norte 21 Norte 0 1016.2 2 62
2019-04-12 22:00:00 17.8 13 Oeste 24 Oeste 0 1015.6 1.5 61
2019-04-12 21:00:00 18 12 Oeste 31 Noroeste 0 1014.9 0.7 59
2019-04-12 20:00:00 18.8 14 Noroeste 36 Noroeste 0 1014.2 -0.3 54
2019-04-12 19:00:00 21.3 14 Norte 29 Norte 0 1014.1 -0.5 46
2019-04-12 18:00:00 21.7 12 Nordeste 28 Norte 0 1014.2 -0.5 45
2019-04-12 17:00:00 21.7 12 Norte 36 Norte 0 1014.5 -1.1 45
2019-04-12 16:00:00 21.7 20 Norte 40 Norte 0 1014.6 -1.5 47
2019-04-12 15:00:00 22 18 Norte 32 Norte 0 1014.7 -1.3 45
2019-04-12 14:00:00 21.2 14 Nordeste 37 Norte 0 1015.6 -0.4 48
2019-04-12 13:00:00 21 20 Norte 38 Nordeste 0 1016.1 0.2 50
2019-04-12 12:00:00 20.5 13 Norte 31 Norte 0 1016 0.4 51
2019-04-12 11:00:00 19.9 15 Norte 31 Norte 0 1016 0.7 52
2019-04-12 10:00:00 19.8 17 Norte 28 Norte 0 1015.9 1.1 51
2019-04-12 09:00:00 18.8 17 Norte 35 Nordeste -- 1015.6 0.8 56
2019-04-12 08:00:00 17.6 13 Norte 26 Nordeste 0 1015.3 0.4 57
2019-04-12 07:00:00 17.7 12 Norte 35 Nordeste 0 1014.8 -0.1 60
2019-04-12 06:00:00 17.6 10 Norte 41 Norte 0 1014.8 -0.6 60
2019-04-12 05:00:00 17.5 14 Norte 34 Noroeste 0 1014.9 -1.3 60
2019-04-12 04:00:00 17.6 12 Norte 32 Nordeste 0 1014.9 -2 62
2019-04-12 03:00:00 17.5 8 Norte 23 Nordeste 0 1015.4 -2 61
2019-04-12 02:00:00 17.5 6 Nordeste 26 Nordeste 0 1016.2 -0.8 59
2019-04-12 01:00:00 17.8 10 Norte 30 Nordeste 0 1016.9 0.4 60
2019-04-12 00:00:00 17.8 13 Norte 33 Norte 0 1017.4 1.6 60
2019-04-11 23:00:00 18.1 17 Norte 37 Norte 0 1017 1.8 59
2019-04-11 22:00:00 18.4 10 Norte 45 Norte 0 1016.5 1.7 61
2019-04-11 21:00:00 18.1 14 Noroeste 32 Norte 0 1015.8 0.9 57
2019-04-11 20:00:00 18.5 14 Norte 31 Norte 0 1015.2 0.5 56
2019-04-11 19:00:00 20.2 12 Norte 31 Norte 0 1014.8 -0.3 52
2019-04-11 18:00:00 21.1 14 Norte 34 Nordeste 0 1014.9 -0.8 49
2019-04-11 17:00:00 21.6 14 Norte 46 Norte 0 1014.7 -1.2 47
2019-04-11 16:00:00 21.6 15 Nordeste 40 Nordeste 0 1015.1 -1.5 46
2019-04-11 15:00:00 21.5 23 Norte 41 Norte 0 1015.7 -1.3 45
2019-04-11 14:00:00 20.8 11 Nordeste 31 Norte 0 1015.9 -1 51
2019-04-11 13:00:00 20.6 13 Norte 33 Norte 0 1016.6 -0.3 54
2019-04-11 12:00:00 19.9 18 Norte 47 Norte 0 1017 0.5 51
2019-04-11 11:00:00 19.6 13 Norte 36 Norte 0 1016.9 0.9 51
2019-04-11 10:00:00 18.6 9 Norte 29 Norte 0 1016.9 1.5 56
2019-04-11 09:00:00 17.4 11 Norte 36 Nordeste 0 1016.5 1.4 56
2019-04-11 08:00:00 17 10 Norte 25 Norte 0 1016 0.9 60
2019-04-11 07:00:00 17.2 15 Norte 31 Norte 0 1015.4 0.1 60
2019-04-11 06:00:00 17.3 14 Norte 32 Nordeste 0 1015.1 -0.9 61
2019-04-11 05:00:00 17.1 12 Norte 22 Norte 0 1015.1 -1.2 62
2019-04-11 04:00:00 16.8 7 Norte 19 Nordeste 0 1015.3 -1.5 59
2019-04-11 03:00:00 17 8 Norte 23 Norte 0 1016 -0.9 59
2019-04-11 02:00:00 17.4 10 Norte 26 Noroeste 0 1016.3 -0.3 59
2019-04-11 01:00:00 17.4 7 Noroeste 17 Noroeste 0 1016.8 0.4 59
2019-04-11 00:00:00 17.4 10 Norte 21 Norte 0 1016.9 1 59
2019-04-10 23:00:00 17.8 7 Norte 20 Norte 0 1016.6 1.2 60
2019-04-10 22:00:00 17.9 13 Norte 24 Noroeste 0 1016.4 1.3 57
2019-04-10 21:00:00 18.2 13 Norte 28 Nordeste 0 1015.9 1 58
2019-04-10 20:00:00 18.7 12 Norte 31 Norte 0 1015.4 0.6 55
2019-04-10 19:00:00 20.4 13 Norte 33 Norte 0 1015.1 0 51
2019-04-10 18:00:00 20.5 18 Norte 34 Norte 0 1014.9 -0.3 52
2019-04-10 17:00:00 21.7 13 Nordeste 36 Nordeste 0 1014.8 -0.8 44
2019-04-10 16:00:00 21.2 14 Norte 39 Nordeste 0 1015.1 -1.1 46
2019-04-10 15:00:00 21.9 15 Nordeste 45 Nordeste 0 1015.2 -1.3 45
2019-04-10 14:00:00 21.4 17 Nordeste 42 Norte 0 1015.6 -0.7 46
2019-04-10 13:00:00 21.7 18 Norte 33 Norte 0 1016.2 0.2 44
2019-04-10 12:00:00 20.4 16 Nordeste 31 Nordeste 0 1016.5 0.6 46
2019-04-10 11:00:00 19.4 11 Norte 30 Norte 0 1016.3 1 50
2019-04-10 10:00:00 18.9 13 Nordeste 25 Norte 0 1016 1.1 53
2019-04-10 09:00:00 17.9 10 Nordeste 20 Norte 0 1015.9 1.4 60
2019-04-10 08:00:00 17.3 10 Norte 18 Nordeste 0 1015.3 0.7 67
2019-04-10 07:00:00 17.1 9 Noroeste 20 Noroeste 0 1014.9 0.1 63
2019-04-10 06:00:00 17.2 8 Noroeste 17 Norte 0 1014.5 -0.5 59
2019-04-10 05:00:00 17.5 4 Norte 15 Norte 0 1014.6 -0.7 61
2019-04-10 04:00:00 17.3 11 Norte 29 Norte 0 1014.8 -0.9 58
2019-04-10 03:00:00 17.4 12 Norte 25 Norte 0 1015 -1 58
2019-04-10 02:00:00 17.8 13 Nordeste 24 Norte 0 1015.3 -1 62
2019-04-10 01:00:00 17.8 10 Norte 21 Norte 0 1015.7 0 61
2019-04-10 00:00:00 17.9 8 Norte 20 Norte 0 1016 1 62
2019-04-09 23:00:00 17.7 10 Norte 21 Norte 0 1016.3 1.9 62
2019-04-09 22:00:00 17.8 10 Norte 16 Norte 0 1015.7 1.5 62
2019-04-09 21:00:00 18.3 9 Norte 18 Norte 0 1015 0.8 60
2019-04-09 20:00:00 19.1 9 Nordeste 24 Este 0 1014.4 0.1 60
2019-04-09 19:00:00 20.8 12 Nordeste 28 Nordeste 0 1014.2 -0.5 56
2019-04-09 18:00:00 21.6 12 Nordeste 29 Nordeste 0 1014.2 -1.1 57
2019-04-09 17:00:00 21.9 15 Nordeste 35 Nordeste 0 1014.3 -1.3 55
2019-04-09 16:00:00 21.6 15 Nordeste 37 Nordeste 0 1014.7 -1.3 62
2019-04-09 15:00:00 22 11 Nordeste 34 Nordeste 0 1015.3 -1 60
2019-04-09 14:00:00 21.1 13 Este 28 Este 0 1015.6 -0.7 60
2019-04-09 13:00:00 21.3 15 Este 30 Este 0 1016 0 65
2019-04-09 12:00:00 19.9 3 Sudeste 33 Este 0 1016.3 0.4 76
2019-04-09 11:00:00 21.5 13 Este 24 Este 0 1016.3 0.7 66
2019-04-09 10:00:00 21.4 6 Nordeste 18 Nordeste 0 1016 0.8 55
2019-04-09 09:00:00 18.7 2 Sudoeste 10 Oeste 0 1015.9 0.8 66
2019-04-09 08:00:00 16.7 6 Oeste 14 Oeste 0 1015.6 0.7 72
2019-04-09 07:00:00 16.3 10 Oeste 16 Oeste 0 1015.2 0 71
2019-04-09 06:00:00 16 12 Oeste 15 Oeste 0 1015.1 -0.2 72
2019-04-09 05:00:00 16 3 Sudoeste 8 Sudoeste 0 1014.9 -0.8 72
2019-04-09 04:00:00 15.9 3 Sudoeste 5 Oeste 0 1015.2 -1 70
2019-04-09 03:00:00 16 3 Noroeste 9 Oeste 0 1015.3 -1.1 67
2019-04-09 02:00:00 16.5 5 Oeste 9 Oeste 0 1015.7 -0.8 63
2019-04-09 01:00:00 16.7 3 Sudoeste 6 Sudoeste 0 1016.2 -0.3 63
2019-04-09 00:00:00 17.2 2 Sudoeste 13 Noroeste 0 1016.4 0.5 60
2019-04-08 23:00:00 17.6 4 Norte 14 Noroeste 0 1016.5 1 59
2019-04-08 22:00:00 18 10 Noroeste 24 Noroeste 0 1016.5 1.4 58
2019-04-08 21:00:00 18.3 13 Noroeste 27 Noroeste 0 1015.9 1 57
2019-04-08 20:00:00 19 14 Noroeste 30 Norte 0 1015.5 0.6 54
2019-04-08 19:00:00 21.2 16 Noroeste 33 Noroeste 0 1015.1 0 48
2019-04-08 18:00:00 22.3 15 Noroeste 29 Noroeste 0 1014.9 -0.6 45
2019-04-08 17:00:00 22.2 9 Norte 31 Nordeste 0 1014.9 -1.4 47
2019-04-08 16:00:00 22.1 16 Norte 32 Norte 0 1015.1 -1.6 47
2019-04-08 15:00:00 22.7 13 Oeste 25 Oeste 0 1015.5 -1.9 48
2019-04-08 14:00:00 22.3 10 Norte 25 Norte 0 1016.3 -0.9 48
2019-04-08 13:00:00 21.3 9 Nordeste 25 Norte 0 1016.7 -0.4 52
2019-04-08 12:00:00 20.4 17 Noroeste 30 Noroeste 0 1017.4 0.8 56
2019-04-08 11:00:00 19.7 10 Noroeste 24 Noroeste 0 1017.2 1.2 60
2019-04-08 10:00:00 18.2 12 Noroeste 22 Noroeste 0 1017.1 1.5 66
2019-04-08 09:00:00 17.6 11 Norte 15 Norte 0 1016.6 1.1 71
2019-04-08 08:00:00 16.8 5 Noroeste 19 Noroeste 0 1016 0.3 69
2019-04-08 07:00:00 16.9 9 Noroeste 23 Oeste 0 1015.6 -0.3 68
2019-04-08 06:00:00 16.9 3 Noroeste 12 Norte 0 1015.5 -0.8 75
2019-04-08 05:00:00 17 4 Noroeste 18 Noroeste 0 1015.7 -1.1 74
2019-04-08 04:00:00 17.2 9 Noroeste 18 Noroeste 0 1015.9 -1.1 73
2019-04-08 03:00:00 16.8 4 Noroeste 11 Noroeste 0 1016.3 -0.9 66
2019-04-08 02:00:00 17.4 6 Noroeste 13 Noroeste 0 1016.8 -0.3 63
2019-04-08 01:00:00 18 10 Norte 14 Norte 0 1017 0.1 63
2019-04-08 00:00:00 18 8 Oeste 19 Noroeste 0 1017.2 0.8 69
2019-04-07 23:00:00 17.9 14 Noroeste 21 Noroeste 0 1017.1 1.1 66
2019-04-07 22:00:00 18.2 11 Noroeste 22 Noroeste 0 1016.9 1.1 64
2019-04-07 21:00:00 18.9 10 Oeste 17 Oeste 0 1016.4 0.7 60
2019-04-07 20:00:00 19.7 6 Sudoeste 15 Sudeste 0 1016 0.3 59
2019-04-07 19:00:00 20.4 8 Sur 14 Sur 0 1015.8 -0.4 58
2019-04-07 18:00:00 21.7 9 Sur 16 Sudeste 0 1015.7 -1.1 55
2019-04-07 17:00:00 22.4 9 Sur 17 Sur 0 1015.7 -1.7 51
2019-04-07 16:00:00 21.9 13 Sur 19 Sur 0 1016.2 -1.6 54
2019-04-07 15:00:00 21.5 13 Sur 19 Sur 0 1016.8 -1.1 55
2019-04-07 14:00:00 21.7 10 Sudeste 17 Sudeste 0 1017.4 0 54
2019-04-07 13:00:00 21.7 10 Sudeste 17 Sur 0 1017.8 0.7 53
2019-04-07 12:00:00 20.7 9 Sudeste 17 Sur 0 1017.9 1.4 56
2019-04-07 11:00:00 21.7 7 Sudeste 18 Oeste 0 1017.4 1.2 52
2019-04-07 10:00:00 20.1 9 Noroeste 22 Noroeste 0 1017.1 1.5 56
2019-04-07 09:00:00 17.7 9 Noroeste 19 Oeste 0 1016.5 1.1 64
2019-04-07 08:00:00 15.6 9 Noroeste 17 Oeste 0 1016.2 0.7 73
2019-04-07 07:00:00 15.1 8 Oeste 13 Oeste 0 1015.6 -0.1 72
2019-04-07 06:00:00 15.3 9 Oeste 13 Oeste 0 1015.4 -0.7 72
2019-04-07 05:00:00 15.4 6 Oeste 12 Oeste 0 1015.5 -1 70
2019-04-07 04:00:00 15.9 7 Oeste 9 Oeste 0 1015.7 -1.5 69
2019-04-07 03:00:00 15.9 2 Sudoeste 6 Oeste 0 1016.1 -1.2 68
2019-04-07 02:00:00 16.4 4 Norte 17 Norte 0 1016.5 -0.5 65
2019-04-07 01:00:00 16.9 8 Noroeste 16 Norte 0 1017.2 0.3 63
2019-04-07 00:00:00 17.1 9 Noroeste 19 Norte 0 1017.3 1 61
2019-04-06 23:00:00 17.3 14 Norte 23 Noroeste 0 1017 1.1 61
2019-04-06 22:00:00 17.6 10 Noroeste 26 Norte 0 1016.9 1.2 61
2019-04-06 21:00:00 17.8 14 Norte 27 Norte 0 1016.3 0.9 62
2019-04-06 20:00:00 18.3 17 Norte 34 Norte 0 1015.9 0.4 56
2019-04-06 19:00:00 20 21 Norte 41 Norte 0 1015.7 -0.1 49
2019-04-06 18:00:00 20.5 13 Norte 37 Norte 0 1015.4 -0.9 47
2019-04-06 17:00:00 20.8 14 Norte 33 Norte 0 1015.5 -1.2 45
2019-04-06 16:00:00 20.8 16 Norte 39 Norte 0 1015.8 -1 46
2019-04-06 15:00:00 21.5 17 Norte 35 Norte 0 1016.3 -0.6 45
2019-04-06 14:00:00 20.6 21 Norte 32 Noroeste 0 1016.7 0 50
2019-04-06 13:00:00 20.3 18 Norte 36 Norte 0 1016.8 0.4 48
2019-04-06 12:00:00 19.2 14 Norte 30 Noroeste 0 1016.9 1.2 53
2019-04-06 11:00:00 18.1 12 Noroeste 26 Noroeste 0 1016.7 1.7 63
2019-04-06 10:00:00 16.6 17 Noroeste 32 Noroeste 0 1016.4 1.8 64
2019-04-06 09:00:00 17.1 14 Norte 28 Noroeste 0 1015.7 1.7 60
2019-04-06 08:00:00 16.7 13 Norte 32 Norte 0 1015 1.1 58
2019-04-06 07:00:00 16.8 15 Norte 28 Norte 0 1014.6 0.5 57
2019-04-06 06:00:00 16.7 10 Norte 27 Oeste 0 1014 -0.5 62
2019-04-06 05:00:00 17.1 13 Norte 34 Noroeste 0 1013.9 -1.3 57
2019-04-06 04:00:00 17.2 16 Norte 33 Norte 0 1014.1 -1.7 58
2019-04-06 03:00:00 17.4 11 Norte 31 Norte 0 1014.5 -1.3 60
2019-04-06 02:00:00 17 12 Noroeste 34 Noroeste 0 1015.2 -0.5 61
2019-04-06 01:00:00 16.8 19 Noroeste 36 Noroeste 0.2 1015.8 1 67
2019-04-06 00:00:00 17.7 7 Noroeste 36 Norte 0 1015.8 1.7 60
2019-04-05 23:00:00 17.7 15 Norte 39 Norte 0 1015.7 2.2 57
2019-04-05 22:00:00 17.7 22 Norte 36 Noroeste 0 1014.8 1.5 58
2019-04-05 21:00:00 17.9 16 Norte 31 Noroeste 0 1014.1 1.1 61
2019-04-05 20:00:00 18.3 21 Norte 34 Norte 0 1013.5 0.4 57
2019-04-05 19:00:00 19 19 Noroeste 40 Noroeste 0 1013.3 -0.1 56
2019-04-05 18:00:00 19.7 15 Noroeste 45 Norte 0 1013 -0.4 57
2019-04-05 17:00:00 20.2 16 Noroeste 43 Noroeste 0 1013.1 -1 56
2019-04-05 16:00:00 21.1 21 Noroeste 40 Oeste 0 1013.4 -0.8 54
2019-04-05 15:00:00 22 21 Noroeste 39 Noroeste 0 1013.4 -1.1 45
2019-04-05 14:00:00 22.1 18 Oeste 43 Noroeste 0 1014.1 0.4 46
2019-04-05 13:00:00 21.2 15 Noroeste 37 Oeste 0 1014.2 0.8 49
2019-04-05 12:00:00 20.9 19 Noroeste 37 Noroeste 0 1014.5 1.5 51
2019-04-05 11:00:00 20 13 Oeste 31 Noroeste 0 1013.7 1.3 46
2019-04-05 10:00:00 19.3 17 Noroeste 35 Noroeste 0 1013.4 1.3 53
2019-04-05 09:00:00 17.4 5 Oeste 17 Oeste 0 1013 1.3 65
2019-04-05 08:00:00 16.6 8 Noroeste 18 Noroeste 0 1012.4 1 68
2019-04-05 07:00:00 16.3 7 Noroeste 21 Noroeste 0 1012.1 0.5 70
2019-04-05 06:00:00 16.6 14 Noroeste 28 Noroeste 0 1011.7 -0.1 69
2019-04-05 05:00:00 16.6 12 Noroeste 24 Norte 0 1011.4 -0.9 64
2019-04-05 04:00:00 16.9 15 Noroeste 26 Noroeste 0 1011.6 -0.6 65
2019-04-05 03:00:00 17 10 Noroeste 35 Noroeste 0 1011.8 0 65
2019-04-05 02:00:00 17 7 Noroeste 20 Noroeste 0 1012.3 0.8 65
2019-04-05 01:00:00 16.8 10 Noroeste 28 Noroeste 0 1012.2 1.2 65
2019-04-05 00:00:00 17 12 Norte 25 Noroeste 0 1011.8 1.4 66
2019-04-04 23:00:00 17.2 10 Noroeste 23 Noroeste 0 1011.5 1.7 67
2019-04-04 22:00:00 17.5 13 Norte 26 Noroeste 0 1011 1.5 63
2019-04-04 21:00:00 17.9 13 Norte 32 Norte 0 1010.4 0.9 63
2019-04-04 20:00:00 18.5 14 Norte 23 Norte 0 1009.8 0.5 60
2019-04-04 19:00:00 18.8 14 Noroeste 30 Noroeste 0 1009.5 0.2 56
2019-04-04 18:00:00 19.5 13 Noroeste 31 Norte 0 1009.5 -0.1 57
2019-04-04 17:00:00 21.2 13 Noroeste 33 Norte 0 1009.3 -0.2 50
2019-04-04 16:00:00 21.6 21 Norte 36 Noroeste 0 1009.3 -0.5 49
2019-04-04 15:00:00 20.4 18 Norte 38 Noroeste 0 1009.6 0 60
2019-04-04 14:00:00 21.3 17 Noroeste 40 Noroeste 0 1009.5 0.1 54
2019-04-04 13:00:00 18.6 18 Noroeste 33 Noroeste 0 1009.8 1.3 65
2019-04-04 12:00:00 20.1 14 Norte 30 Oeste 0 1009.6 1.7 53
2019-04-04 11:00:00 18.3 9 Norte 32 Norte 0 1009.4 2.2 62
2019-04-04 10:00:00 17.5 15 Noroeste 36 Noroeste 0 1008.5 1.9 66
2019-04-04 09:00:00 16.8 11 Noroeste 28 Noroeste 0 1007.9 1.6 67
2019-04-04 08:00:00 15.8 14 Noroeste 29 Noroeste 0 1007.2 0.8 72
2019-04-04 07:00:00 16.1 14 Noroeste 31 Noroeste 0 1006.6 0.3 72
2019-04-04 06:00:00 16.1 17 Noroeste 28 Noroeste 0 1006.3 -0.4 70
2019-04-04 05:00:00 16.5 14 Oeste 34 Noroeste 0 1006.4 -0.8 67
2019-04-04 04:00:00 16.4 15 Noroeste 28 Oeste 0 1006.3 -1.3 68
2019-04-04 03:00:00 16.2 15 Noroeste 30 Noroeste 0 1006.7 -1.4 70
2019-04-04 02:00:00 16.4 12 Noroeste 34 Noroeste 0 1007.2 -0.9 66
2019-04-04 01:00:00 16.8 14 Noroeste 33 Norte 0 1007.6 0.6 66
2019-04-04 00:00:00 16.8 15 Noroeste 26 Noroeste 0.4 1008.1 1.8 71
2019-04-03 23:00:00 17 12 Noroeste 28 Noroeste 0.2 1008.1 2.5 73
2019-04-03 22:00:00 17.3 13 Noroeste 37 Noroeste 0 1007 1.4 70
2019-04-03 21:00:00 17 22 Noroeste 48 Noroeste 1.4 1006.3 1 67
2019-04-03 20:00:00 17.8 23 Noroeste 45 Noroeste 0.6 1005.6 0.2 68
2019-04-03 19:00:00 19.7 17 Oeste 49 Oeste 0 1005.6 -0.3 61
2019-04-03 18:00:00 21.5 26 Noroeste 60 Oeste 0 1005.3 -0.8 50
2019-04-03 17:00:00 22 21 Oeste 47 Oeste 0 1005.4 -1.5 48
2019-04-03 16:00:00 22.1 22 Oeste 42 Noroeste 0 1005.9 -1.5 45
2019-04-03 15:00:00 21.8 17 Oeste 38 Oeste 0 1006.1 -1.5 42
2019-04-03 14:00:00 20.9 18 Oeste 39 Noroeste 0 1006.9 -0.4 46
2019-04-03 13:00:00 21.5 15 Noroeste 47 Oeste 0 1007.4 0.2 46
2019-04-03 12:00:00 20.9 20 Oeste 39 Oeste 0 1007.6 1.1 50
2019-04-03 11:00:00 19.3 21 Noroeste 36 Oeste 0 1007.3 1.2 61
2019-04-03 10:00:00 18 21 Noroeste 36 Noroeste 0 1007.2 1.6 66
2019-04-03 09:00:00 17.9 13 Noroeste 22 Oeste 0 1006.5 1.2 66
2019-04-03 08:00:00 16.7 10 Oeste 27 Noroeste 0 1006.1 0.7 70
2019-04-03 07:00:00 16.6 7 Oeste 24 Oeste 0 1005.6 0 70
2019-04-03 06:00:00 16.7 10 Oeste 26 Oeste 0 1005.3 -0.9 70
2019-04-03 05:00:00 16.6 11 Noroeste 27 Noroeste 0 1005.4 -1.4 72
2019-04-03 04:00:00 16.8 14 Noroeste 31 Noroeste 0 1005.6 -1.5 72
2019-04-03 03:00:00 16.8 10 Noroeste 22 Oeste 0 1006.2 -1.1 72
2019-04-03 02:00:00 17 6 Oeste 23 Noroeste 0 1006.8 -0.3 70
2019-04-03 01:00:00 17.2 13 Oeste 24 Oeste 0 1007.1 0.7 72
2019-04-03 00:00:00 17.2 12 Oeste 22 Oeste 0 1007.3 1.7 73
2019-04-02 23:00:00 17.5 13 Oeste 19 Oeste 0 1007.1 1.9 74
2019-04-02 22:00:00 17.7 7 Oeste 25 Oeste 0 1006.4 1.2 72
2019-04-02 21:00:00 17.8 12 Oeste 25 Oeste 0 1005.6 0.5 71
2019-04-02 20:00:00 18.2 9 Noroeste 32 Noroeste 0 1005.2 0 71
2019-04-02 19:00:00 19.4 15 Oeste 26 Oeste 0 1005.2 -0.5 67
2019-04-02 18:00:00 19.6 8 Noroeste 19 Noroeste 0 1005.1 -1 66
2019-04-02 17:00:00 20.6 8 Sur 16 Oeste 0 1005.2 -1.4 59
2019-04-02 16:00:00 19.9 6 Oeste 18 Sur 0 1005.7 -1.2 64
2019-04-02 15:00:00 20.2 9 Sudoeste 20 Oeste 0 1006.1 -1.1 64
2019-04-02 14:00:00 19.9 6 Sudeste 15 Sudeste 0 1006.6 -0.5 66
2019-04-02 13:00:00 19.6 5 Este 9 Este 0 1006.9 0.4 71
2019-04-02 12:00:00 17.9 0 Calma 9 Oeste 0.2 1007.2 0.9 79
2019-04-02 11:00:00 17.1 5 Oeste 14 Oeste 0 1007.1 1.3 82
2019-04-02 10:00:00 17.4 4 Sudeste 12 Este 0.2 1006.5 0.7 83
2019-04-02 09:00:00 17.8 5 Este 10 Sudeste 0 1006.3 0.4 79
2019-04-02 08:00:00 16 2 Sudeste 5 Este 0 1005.8 -0.1 90
2019-04-02 07:00:00 15.7 0 Calma 6 Oeste 0 1005.8 -0.4 90
2019-04-02 06:00:00 15.8 4 Oeste 9 Oeste 0 1005.9 -0.9 88
2019-04-02 05:00:00 15.5 3 Oeste 6 Oeste 0 1005.9 -1.4 93
2019-04-02 04:00:00 15.3 2 Oeste 5 Oeste 0 1006.2 -2 92
2019-04-02 03:00:00 15.6 5 Oeste 19 Oeste 0 1006.8 -2.1 86
2019-04-02 02:00:00 15.8 4 Noroeste 8 Noroeste 0.2 1007.3 -1.7 90
2019-04-02 01:00:00 15.9 7 Nordeste 13 Nordeste 0.2 1008.2 0.1 90
2019-04-02 00:00:00 15.6 3 Oeste 12 Noroeste 6.2 1008.9 1.1 92
2019-04-01 23:00:00 16 2 Oeste 22 Oeste 14.6 1009 1.5 90
2019-04-01 22:00:00 17.8 9 Este 16 Nordeste 0 1008.1 0.3 79
2019-04-01 21:00:00 18 4 Este 8 Este 0 1007.8 0.1 75
2019-04-01 20:00:00 18.2 5 Este 7 Este 0 1007.5 -0.4 72
2019-04-01 19:00:00 18.4 5 Este 9 Este 0 1007.8 -0.4 69
2019-04-01 18:00:00 18.3 3 Noroeste 8 Norte 0 1007.7 -1.1 73
2019-04-01 17:00:00 17.1 9 Noroeste 24 Noroeste 3.8 1007.9 -1.6 75
2019-04-01 16:00:00 19 11 Este 17 Este 0 1008.2 -1.8 68
2019-04-01 15:00:00 20.5 11 Este 19 Este 0 1008.8 -1.8 64
2019-04-01 14:00:00 20.1 13 Este 20 Este 0 1009.5 -1.2 67
2019-04-01 13:00:00 21 13 Este 20 Este 0 1010 -0.6 60
2019-04-01 12:00:00 20.7 10 Sudeste 18 Sudeste 0 1010.6 0.5 60
2019-04-01 11:00:00 20.5 6 Sudeste 13 Sudeste 0 1010.7 0.8 61
2019-04-01 10:00:00 18.9 4 Sudoeste 7 Sur 0 1010.6 1 62
2019-04-01 09:00:00 17.4 2 Sudeste 11 Oeste 0 1010.1 0.7 67
2019-04-01 08:00:00 16.8 8 Noroeste 18 Oeste 0 1009.9 0.3 70
2019-04-01 07:00:00 16.6 10 Noroeste 17 Noroeste 0 1009.6 -0.1 71
2019-04-01 06:00:00 16.7 10 Oeste 18 Noroeste 0 1009.4 -0.7 70
2019-04-01 05:00:00 16.8 6 Noroeste 14 Oeste 0 1009.6 -1.1 70
2019-04-01 04:00:00 17.3 10 Noroeste 20 Noroeste 0 1009.7 -1.7 69
2019-04-01 03:00:00 17.5 6 Noroeste 20 Oeste 0 1010.1 -1.2 66
2019-04-01 02:00:00 17.5 6 Noroeste 28 Noroeste 0 1010.7 -0.5 68
2019-04-01 01:00:00 17.8 13 Oeste 27 Noroeste 0 1011.4 0.4 65
2019-04-01 00:00:00 18.4 19 Noroeste 31 Noroeste 0 1011.3 0.5 61
2019-03-31 23:00:00 18.5 15 Noroeste 32 Noroeste 0 1011.2 0.6 64
2019-03-31 22:00:00 18.4 14 Noroeste 29 Noroeste 0 1011 0.4 66
2019-03-31 21:00:00 18.8 11 Noroeste 17 Norte 0 1010.8 0.5 65
2019-03-31 20:00:00 19.3 5 Sur 20 Sudoeste 0 1010.6 0 60
2019-03-31 19:00:00 20.4 5 Sur 13 Sudeste 0 1010.6 -0.2 60
2019-03-31 18:00:00 19.8 6 Sudeste 10 Sur 0 1010.3 -1 59
2019-03-31 17:00:00 19.6 5 Sudeste 13 Sudoeste 0 1010.6 -1.1 63
2019-03-31 16:00:00 19.8 7 Sudeste 12 Sudeste 0 1010.8 -1.2 62
2019-03-31 15:00:00 19.5 6 Sudeste 14 Sur 0 1011.3 -1.3 62
2019-03-31 14:00:00 20.5 10 Sur 19 Sur 0 1011.7 -0.7 60
2019-03-31 13:00:00 20.7 11 Sur 19 Sudoeste 0 1012 0 60
2019-03-31 12:00:00 20.6 10 Sur 23 Sur 0 1012.6 1.1 60
2019-03-31 11:00:00 20.7 15 Sur 23 Sur 0 1012.4 1.5 58
2019-03-31 10:00:00 19.7 10 Sur 20 Oeste 0 1012 1.3 60
2019-03-31 09:00:00 17.8 10 Sudoeste 19 Sudoeste 0 1011.5 1.1 59
2019-03-31 08:00:00 16.4 8 Noroeste 18 Noroeste 0 1010.9 -0.2 63
2019-03-31 07:00:00 16.1 7 Oeste 20 Oeste 0 1010.7 -1 61
2019-03-31 06:00:00 15.9 8 Oeste 14 Oeste 0 1010.4 -1.9 61
2019-03-31 05:00:00 16.4 10 Oeste 20 Noroeste 0 1011.1 -1.7 59
2019-03-31 04:00:00 16.2 10 Oeste 23 Noroeste 0 1011.7 -1.1 64
2019-03-31 00:00:00 16.5 11 Oeste 19 Noroeste 0 1012.8 -0.2 64
2019-03-30 23:00:00 16.7 10 Oeste 17 Oeste 0 1013 0.8 65
2019-03-30 22:00:00 17 13 Oeste 21 Oeste 0 1013.4 1.5 64
2019-03-30 21:00:00 17.3 13 Oeste 22 Noroeste 0 1013 1.5 64
2019-03-30 20:00:00 17.7 9 Noroeste 22 Noroeste 0 1012.2 0.6 61
2019-03-30 19:00:00 18.7 10 Noroeste 19 Noroeste 0 1011.9 0.5 56
2019-03-30 18:00:00 19.2 7 Sudoeste 15 Sudoeste 0 1011.5 0.3 50
2019-03-30 17:00:00 19.8 6 Sudeste 17 Este 0 1011.6 0 50
2019-03-30 16:00:00 19.4 11 Este 23 Sudeste 0 1011.4 -0.5 53
2019-03-30 15:00:00 20.7 11 Este 27 Este 0 1011.2 -1 49
2019-03-30 14:00:00 23.1 7 Sudoeste 32 Oeste 0 1011.6 -0.8 42
2019-03-30 13:00:00 22.5 17 Oeste 30 Oeste 0 1011.9 -0.2 36
2019-03-30 12:00:00 21.1 8 Noroeste 25 Este 0 1012.2 0.5 44
2019-03-30 11:00:00 19.7 16 Este 27 Este 0 1012.4 1.4 62
2019-03-30 10:00:00 20.1 7 Este 16 Este 0 1012.1 1.3 56
2019-03-30 09:00:00 19.1 9 Este 15 Oeste 0 1011.7 1.5 62
2019-03-30 08:00:00 16.9 5 Oeste 14 Oeste 0 1011 1 66
2019-03-30 07:00:00 15.8 6 Noroeste 25 Norte 0.2 1010.8 0.6 70
2019-03-30 06:00:00 16.1 9 Noroeste 24 Noroeste 0 1010.2 0 63
2019-03-30 05:00:00 15.9 9 Oeste 17 Oeste 0 1010 -0.7 68
2019-03-30 04:00:00 15.7 9 Noroeste 21 Noroeste 0 1010.2 -1.1 64
2019-03-30 03:00:00 15.7 9 Oeste 21 Oeste 0 1010.2 -1.5 62
2019-03-30 02:00:00 15.5 5 Oeste 14 Oeste 0 1010.7 -1 67
2019-03-30 01:00:00 16.3 10 Oeste 15 Oeste 0 1011.3 -0.1 62
2019-03-30 00:00:00 16.8 10 Oeste 15 Oeste 0 1011.7 0.5 54
2019-03-29 23:00:00 17 11 Oeste 15 Oeste 0 1011.7 1.2 52
2019-03-29 22:00:00 17.4 5 Noroeste 14 Noroeste 0 1011.4 1.2 48
2019-03-29 21:00:00 17.7 7 Oeste 20 Noroeste 0 1011.2 1.1 48
2019-03-29 20:00:00 17.9 4 Noroeste 19 Noroeste 0 1010.5 0.4 50
2019-03-29 19:00:00 17.3 15 Noroeste 30 Noroeste 0 1010.2 0.3 58
2019-03-29 18:00:00 17.7 16 Noroeste 30 Noroeste 0 1010.1 -0.4 61
2019-03-29 17:00:00 18.8 15 Noroeste 30 Noroeste 0 1010.1 -0.9 52
2019-03-29 16:00:00 20.9 10 Oeste 18 Noroeste 0.2 1009.9 -1.9 57
2019-03-29 15:00:00 19.8 13 Oeste 21 Oeste 0 1010.5 -1.6 66
2019-03-29 14:00:00 21 5 Sudoeste 17 Sur 0 1011 -1.2 55
2019-03-29 13:00:00 20.4 10 Oeste 27 Oeste 0 1011.8 -0.5 61
2019-03-29 12:00:00 21.6 9 Sudeste 18 Sudeste 0 1012.1 -0.1 61
2019-03-29 11:00:00 20.3 6 Sudeste 12 Sudeste 0 1012.2 0.4 67
2019-03-29 10:00:00 18.8 4 Noroeste 9 Norte 0 1012.3 0.9 75
2019-03-29 09:00:00 17.2 5 Noroeste 15 Oeste 0.8 1012.2 1.2 80
2019-03-29 08:00:00 18.3 4 Sur 9 Sur 0 1011.8 1 73
2019-03-29 07:00:00 16.8 6 Oeste 13 Oeste 0 1011.4 0.5 76
2019-03-29 06:00:00 16.4 9 Oeste 15 Oeste 0 1011 -0.2 75
2019-03-29 05:00:00 16.6 3 Oeste 10 Noroeste 0 1010.8 -0.9 76
2019-03-29 04:00:00 16.7 4 Oeste 8 Oeste 0 1010.9 -1.3 78
2019-03-29 03:00:00 17.3 3 Este 8 Este 0 1011.2 -1.3 76
2019-03-29 02:00:00 17.7 3 Este 8 Este 0 1011.7 -1.1 73
2019-03-29 01:00:00 17.8 3 Sudeste 8 Sudeste 0 1012.2 -0.7 73
2019-03-29 00:00:00 17.9 4 Este 10 Este 0 1012.5 -0.3 73
2019-03-28 23:00:00 18.3 7 Este 12 Este 0 1012.8 0.5 72
2019-03-28 22:00:00 18.4 7 Este 13 Este 0 1012.9 1.2 72
2019-03-28 21:00:00 18.5 8 Este 13 Este 0 1012.8 1.2 71
2019-03-28 20:00:00 18.5 8 Este 14 Este 0 1012.3 0.7 69
2019-03-28 19:00:00 18.7 9 Este 15 Nordeste 0 1011.7 0.2 69
2019-03-28 18:00:00 19 9 Este 16 Nordeste 0 1011.6 -0.2 67
2019-03-28 17:00:00 19.3 9 Este 17 Este 0 1011.6 -0.6 66
2019-03-28 16:00:00 19.8 9 Este 16 Sudeste 0 1011.5 -1.1 65
2019-03-28 15:00:00 20.5 9 Este 19 Sudeste 0 1011.8 -1.2 61
2019-03-28 14:00:00 21.6 10 Este 18 Este 0 1012.2 -1 58
2019-03-28 13:00:00 21.1 12 Este 19 Este 0 1012.6 -0.4 59
2019-03-28 12:00:00 21.5 11 Este 17 Este 0 1013 0.3 60
2019-03-28 11:00:00 21 10 Este 16 Este 0 1013.2 0.7 63
2019-03-28 10:00:00 20.5 8 Este 14 Sudeste 0 1013 1 59
2019-03-28 09:00:00 19.3 3 Noroeste 12 Oeste 0 1012.7 1.1 62
2019-03-28 08:00:00 16.4 9 Oeste 18 Oeste 0 1012.5 1.2 70
2019-03-28 07:00:00 15.5 14 Oeste 19 Oeste 0 1012 0.7 72
2019-03-28 06:00:00 15.5 11 Oeste 18 Oeste 0 1011.6 0.1 72
2019-03-28 05:00:00 15.7 5 Oeste 13 Oeste 0 1011.3 -0.4 74
2019-03-28 04:00:00 16 8 Oeste 14 Oeste 0 1011.3 -0.7 73
2019-03-28 03:00:00 16.3 10 Oeste 14 Oeste 0 1011.5 -0.7 73
2019-03-28 02:00:00 16.7 6 Oeste 10 Oeste 0 1011.7 -0.3 71
2019-03-28 01:00:00 17 2 Nordeste 14 Oeste 0 1012 0 70
2019-03-28 00:00:00 17.5 9 Oeste 12 Oeste 0 1012.2 0.8 69
2019-03-27 23:00:00 17.8 4 Oeste 10 Oeste 0 1012 1.2 67
2019-03-27 22:00:00 18.2 6 Noroeste 13 Noroeste 0 1012 1.7 65
2019-03-27 21:00:00 18.6 4 Norte 11 Norte 0 1011.4 1.6 63
2019-03-27 20:00:00 19.1 6 Norte 19 Noroeste 0 1010.8 1.5 60
2019-03-27 19:00:00 20 4 Norte 22 Nordeste 0 1010.3 0.8 57
2019-03-27 18:00:00 20.6 18 Oeste 28 Oeste 0 1009.8 0.2 52
2019-03-27 17:00:00 20.8 4 Sudeste 15 Nordeste 0 1009.3 -0.3 58
2019-03-27 16:00:00 21.4 8 Nordeste 23 Sur 0.2 1009.5 -0.7 61
2019-03-27 15:00:00 22 8 Sur 18 Sudeste 0 1009.6 -0.8 57
2019-03-27 14:00:00 22.8 9 Sudeste 19 Sudeste 0 1009.6 -1 54
2019-03-27 13:00:00 21.7 6 Sur 20 Sur 0 1010.2 0.1 61
2019-03-27 12:00:00 21.6 10 Sur 26 Sur 0 1010.4 0.8 63
2019-03-27 11:00:00 21.2 4 Sur 24 Oeste 0 1010.6 1.8 61
2019-03-27 10:00:00 20.6 12 Noroeste 26 Oeste 0 1010.1 1.7 58
2019-03-27 09:00:00 20.8 6 Noroeste 22 Noroeste 0 1009.6 2.1 56
2019-03-27 08:00:00 18.8 10 Noroeste 26 Noroeste 0 1008.8 2 62
2019-03-27 07:00:00 18 10 Noroeste 19 Noroeste 0 1008.4 1.5 68
2019-03-27 06:00:00 18.1 10 Noroeste 21 Noroeste 0 1007.5 0.4 68
2019-03-27 05:00:00 18.3 10 Norte 23 Norte 0 1006.8 -0.5 69
2019-03-27 04:00:00 18.5 9 Noroeste 19 Noroeste 0 1006.9 -0.6 68
2019-03-27 03:00:00 18.1 10 Oeste 19 Oeste 0 1007.1 -0.2 70
2019-03-27 02:00:00 18.1 5 Noroeste 18 Oeste 0 1007.3 0.1 71
2019-03-27 01:00:00 18.2 12 Noroeste 25 Noroeste 0.2 1007.5 0.8 73
2019-03-27 00:00:00 18.6 21 Noroeste 36 Norte 0 1007.3 0.9 69
2019-03-26 23:00:00 18.7 11 Noroeste 30 Noroeste 0 1007.2 1.7 65
2019-03-26 22:00:00 18.8 10 Noroeste 29 Noroeste 0 1006.7 1.7 59
2019-03-26 21:00:00 18.6 12 Noroeste 20 Noroeste 0 1006.4 1.9 65
2019-03-26 20:00:00 18.4 4 Norte 9 Sudoeste 0 1005.5 1.6 71
2019-03-26 19:00:00 18.8 4 Sur 12 Sur 0 1005 1.5 70
2019-03-26 18:00:00 19.9 8 Sur 13 Sur 0 1004.5 1.1 66
2019-03-26 17:00:00 21.2 8 Sudeste 15 Sudeste 0 1003.9 0.4 61
2019-03-26 16:00:00 21.3 10 Sudeste 17 Sudeste 0 1003.5 -0.4 62
2019-03-26 15:00:00 21.2 10 Sudeste 16 Sudeste 0 1003.4 -0.8 61
2019-03-26 14:00:00 20.3 8 Sudeste 17 Sudeste 0 1003.5 -0.7 64
2019-03-26 13:00:00 21 8 Sudeste 18 Sur 0 1003.9 0.3 64
2019-03-26 12:00:00 21 11 Sur 21 Sur 0 1004.2 1.4 64
2019-03-26 11:00:00 20.9 14 Sur 21 Sur 0 1004.2 1.9 62
2019-03-26 10:00:00 20.5 14 Sur 21 Sur 0 1003.6 2.1 62
2019-03-26 09:00:00 19.2 6 Noroeste 18 Noroeste 0 1002.8 1.5 63
2019-03-26 08:00:00 17.6 9 Oeste 15 Oeste 0 1002.3 1.3 69
2019-03-26 07:00:00 16.2 5 Sudoeste 17 Noroeste 0 1001.5 0.3 73
2019-03-26 06:00:00 16.4 9 Noroeste 24 Norte 0 1001.3 0.1 72
2019-03-26 05:00:00 15.8 4 Sudeste 15 Oeste 0 1001 -0.7 71
2019-03-26 04:00:00 15.5 8 Oeste 12 Oeste 0 1001.2 -0.8 67
2019-03-26 03:00:00 15 2 Sur 7 Oeste 0 1001.2 -1 75
2019-03-26 02:00:00 15.5 4 Noroeste 12 Oeste 0 1001.7 -0.8 73
2019-03-26 01:00:00 16.1 6 Noroeste 12 Oeste 0 1002 -0.3 71
2019-03-26 00:00:00 16.4 4 Sudoeste 8 Oeste 0 1002.2 0.1 73
2019-03-25 23:00:00 16.4 7 Oeste 10 Oeste 0 1002.5 0.9 74
2019-03-25 22:00:00 16.4 2 Noroeste 6 Noroeste 0 1002.3 0.9 78
2019-03-25 21:00:00 16.5 4 Sur 8 Sur 0 1002.1 0.8 79
2019-03-25 20:00:00 17 4 Sudeste 9 Sudeste 0 1001.6 0.6 75
2019-03-25 19:00:00 17.5 5 Sur 10 Sudoeste 0 1001.4 0.4 73
2019-03-25 18:00:00 17.7 5 Sur 15 Sur 0 1001.3 -0.1 71
2019-03-25 17:00:00 18.6 5 Sudoeste 10 Sudoeste 0 1001 -1.3 68
2019-03-25 16:00:00 18.8 5 Este 14 Sudeste 0 1001 -2.6 66
2019-03-25 15:00:00 19.1 6 Sur 11 Sudeste 0 1001.4 -3.1 68
2019-03-25 14:00:00 17.6 7 Este 13 Este 0 1002.3 -2.4 72
2019-03-25 13:00:00 17.2 6 Este 13 Este 0.2 1003.6 -0.6 76
2019-03-25 12:00:00 16.4 4 Este 20 Sudoeste 0.8 1004.5 0.6 77
2019-03-25 11:00:00 17.3 12 Sudoeste 22 Sudoeste 0.4 1004.7 1.1 77
2019-03-25 10:00:00 17.8 8 Sudoeste 14 Sudoeste 0 1004.2 0.9 74
2019-03-25 09:00:00 18.1 5 Sudoeste 8 Sudoeste 0 1003.9 0.7 72
2019-03-25 08:00:00 17.3 3 Sudoeste 8 Sudoeste 0 1003.6 0.2 76
2019-03-25 07:00:00 16.9 5 Sudoeste 9 Oeste 0 1003.3 -0.5 75
2019-03-25 06:00:00 16.8 3 Sudoeste 8 Sudoeste 0 1003.2 -1.1 77
2019-03-25 05:00:00 16.6 2 Sudoeste 4 Oeste 0 1003.4 -1.3 80
2019-03-25 04:00:00 16.9 3 Sudeste 6 Sudeste 0 1003.8 -1.4 78
2019-03-25 03:00:00 16.8 3 Sudoeste 6 Sur 0 1004.3 -1.4 80
2019-03-25 02:00:00 17 6 Sudoeste 10 Sudoeste 0.2 1004.7 -1.4 80
2019-03-25 01:00:00 17.3 2 Sudoeste 9 Oeste 0 1005.2 -1.2 76
2019-03-25 00:00:00 17.6 5 Sudoeste 13 Sur 0 1005.7 -0.4 74